sensor_id;sensor_type;location;lat;lon;timestamp;temperature;humidity
18906;DHT22;9585;51.018;4.282;2023-07-20T00:01:22;15.30;99.90
18906;DHT22;9585;51.018;4.282;2023-07-20T00:03:49;15.30;99.90
18906;DHT22;9585;51.018;4.282;2023-07-20T00:06:22;15.30;99.90
18906;DHT22;9585;51.018;4.282;2023-07-20T00:08:50;15.30;99.90
18906;DHT22;9585;51.018;4.282;2023-07-20T00:11:18;15.30;99.90
18906;DHT22;9585;51.018;4.282;2023-07-20T00:13:46;15.30;99.90
18906;DHT22;9585;51.018;4.282;2023-07-20T00:16:14;15.30;99.90
18906;DHT22;9585;51.018;4.282;2023-07-20T00:18:41;15.30;99.90
18906;DHT22;9585;51.018;4.282;2023-07-20T00:21:09;15.30;99.90
18906;DHT22;9585;51.018;4.282;2023-07-20T00:23:39;15.30;99.90
18906;DHT22;9585;51.018;4.282;2023-07-20T00:26:07;15.30;99.90
18906;DHT22;9585;51.018;4.282;2023-07-20T00:28:34;15.30;99.90
18906;DHT22;9585;51.018;4.282;2023-07-20T00:31:02;15.30;99.90
18906;DHT22;9585;51.018;4.282;2023-07-20T00:33:30;15.30;99.90
18906;DHT22;9585;51.018;4.282;2023-07-20T00:35:57;15.30;99.90
18906;DHT22;9585;51.018;4.282;2023-07-20T00:38:25;15.30;99.90
18906;DHT22;9585;51.018;4.282;2023-07-20T00:40:54;15.30;99.90
18906;DHT22;9585;51.018;4.282;2023-07-20T00:43:21;15.30;99.90
18906;DHT22;9585;51.018;4.282;2023-07-20T00:45:49;15.20;99.90
18906;DHT22;9585;51.018;4.282;2023-07-20T00:48:17;15.20;99.90
18906;DHT22;9585;51.018;4.282;2023-07-20T00:50:44;15.10;99.90
18906;DHT22;9585;51.018;4.282;2023-07-20T00:53:12;15.00;99.90
18906;DHT22;9585;51.018;4.282;2023-07-20T00:55:40;15.00;99.90
18906;DHT22;9585;51.018;4.282;2023-07-20T00:58:09;15.00;99.90
18906;DHT22;9585;51.018;4.282;2023-07-20T01:00:39;15.00;99.90
18906;DHT22;9585;51.018;4.282;2023-07-20T01:03:07;15.00;99.90
18906;DHT22;9585;51.018;4.282;2023-07-20T01:05:40;15.00;99.90
18906;DHT22;9585;51.018;4.282;2023-07-20T01:08:13;14.90;99.90
18906;DHT22;9585;51.018;4.282;2023-07-20T01:10:46;14.90;99.90
18906;DHT22;9585;51.018;4.282;2023-07-20T01:13:18;14.90;99.90
18906;DHT22;9585;51.018;4.282;2023-07-20T01:15:49;15.00;99.90
18906;DHT22;9585;51.018;4.282;2023-07-20T01:18:17;14.90;99.90
18906;DHT22;9585;51.018;4.282;2023-07-20T01:20:45;14.90;99.90
18906;DHT22;9585;51.018;4.282;2023-07-20T01:23:56;14.80;99.90
18906;DHT22;9585;51.018;4.282;2023-07-20T01:26:57;14.80;99.90
18906;DHT22;9585;51.018;4.282;2023-07-20T01:29:46;14.70;99.90
18906;DHT22;9585;51.018;4.282;2023-07-20T01:32:17;14.70;99.90
18906;DHT22;9585;51.018;4.282;2023-07-20T01:34:47;14.60;99.90
18906;DHT22;9585;51.018;4.282;2023-07-20T01:37:16;14.60;99.90
18906;DHT22;9585;51.018;4.282;2023-07-20T01:39:46;14.50;99.90
18906;DHT22;9585;51.018;4.282;2023-07-20T01:42:14;14.50;99.90
18906;DHT22;9585;51.018;4.282;2023-07-20T01:44:42;14.50;99.90
18906;DHT22;9585;51.018;4.282;2023-07-20T01:47:10;14.50;99.90
18906;DHT22;9585;51.018;4.282;2023-07-20T01:49:39;14.40;99.90
18906;DHT22;9585;51.018;4.282;2023-07-20T01:52:07;14.40;99.90
18906;DHT22;9585;51.018;4.282;2023-07-20T01:54:35;14.30;99.90
18906;DHT22;9585;51.018;4.282;2023-07-20T01:57:02;14.30;99.90
18906;DHT22;9585;51.018;4.282;2023-07-20T01:59:30;14.20;99.90
18906;DHT22;9585;51.018;4.282;2023-07-20T02:01:58;14.20;99.90
18906;DHT22;9585;51.018;4.282;2023-07-20T02:04:25;14.20;99.90
18906;DHT22;9585;51.018;4.282;2023-07-20T02:06:54;14.10;99.90
18906;DHT22;9585;51.018;4.282;2023-07-20T02:09:22;14.10;99.90
18906;DHT22;9585;51.018;4.282;2023-07-20T02:11:50;14.10;99.90
18906;DHT22;9585;51.018;4.282;2023-07-20T02:14:17;14.10;99.90
18906;DHT22;9585;51.018;4.282;2023-07-20T02:16:45;14.10;99.90
18906;DHT22;9585;51.018;4.282;2023-07-20T02:19:14;14.10;99.90
18906;DHT22;9585;51.018;4.282;2023-07-20T02:21:42;14.10;99.90
18906;DHT22;9585;51.018;4.282;2023-07-20T02:24:12;14.00;99.90
18906;DHT22;9585;51.018;4.282;2023-07-20T02:26:40;14.00;99.90
18906;DHT22;9585;51.018;4.282;2023-07-20T02:29:08;14.00;99.90
18906;DHT22;9585;51.018;4.282;2023-07-20T02:31:37;13.90;99.90
18906;DHT22;9585;51.018;4.282;2023-07-20T02:34:05;14.00;99.90
18906;DHT22;9585;51.018;4.282;2023-07-20T02:36:32;13.90;99.90
18906;DHT22;9585;51.018;4.282;2023-07-20T02:39:00;13.90;99.90
18906;DHT22;9585;51.018;4.282;2023-07-20T02:41:32;13.90;99.90
18906;DHT22;9585;51.018;4.282;2023-07-20T02:43:59;13.90;99.90
18906;DHT22;9585;51.018;4.282;2023-07-20T02:46:27;13.70;99.90
18906;DHT22;9585;51.018;4.282;2023-07-20T02:48:56;13.70;99.90
18906;DHT22;9585;51.018;4.282;2023-07-20T02:51:23;13.70;99.90
18906;DHT22;9585;51.018;4.282;2023-07-20T02:53:51;13.80;99.90
18906;DHT22;9585;51.018;4.282;2023-07-20T02:56:18;13.80;99.90
18906;DHT22;9585;51.018;4.282;2023-07-20T02:58:47;13.70;99.90
18906;DHT22;9585;51.018;4.282;2023-07-20T03:01:14;13.80;99.90
18906;DHT22;9585;51.018;4.282;2023-07-20T03:03:42;13.80;99.90
18906;DHT22;9585;51.018;4.282;2023-07-20T03:06:12;13.80;99.90
18906;DHT22;9585;51.018;4.282;2023-07-20T03:08:40;13.80;99.90
18906;DHT22;9585;51.018;4.282;2023-07-20T03:11:13;13.90;99.90
18906;DHT22;9585;51.018;4.282;2023-07-20T03:13:41;13.90;99.90
18906;DHT22;9585;51.018;4.282;2023-07-20T03:16:12;13.90;99.90
18906;DHT22;9585;51.018;4.282;2023-07-20T03:18:41;13.90;99.90
18906;DHT22;9585;51.018;4.282;2023-07-20T03:21:10;14.00;99.90
18906;DHT22;9585;51.018;4.282;2023-07-20T03:23:38;13.90;99.90
18906;DHT22;9585;51.018;4.282;2023-07-20T03:26:06;13.90;99.90
18906;DHT22;9585;51.018;4.282;2023-07-20T03:28:34;14.00;99.90
18906;DHT22;9585;51.018;4.282;2023-07-20T03:31:02;14.00;99.90
18906;DHT22;9585;51.018;4.282;2023-07-20T03:33:31;14.00;99.90
18906;DHT22;9585;51.018;4.282;2023-07-20T03:35:59;14.10;99.90
18906;DHT22;9585;51.018;4.282;2023-07-20T03:38:27;14.00;99.90
18906;DHT22;9585;51.018;4.282;2023-07-20T03:40:57;14.00;99.90
18906;DHT22;9585;51.018;4.282;2023-07-20T03:43:25;14.00;99.90
18906;DHT22;9585;51.018;4.282;2023-07-20T03:45:54;14.00;99.90
18906;DHT22;9585;51.018;4.282;2023-07-20T03:48:23;14.10;99.90
18906;DHT22;9585;51.018;4.282;2023-07-20T03:50:53;14.10;99.90
18906;DHT22;9585;51.018;4.282;2023-07-20T03:53:21;14.10;99.90
18906;DHT22;9585;51.018;4.282;2023-07-20T03:55:49;14.10;99.90
18906;DHT22;9585;51.018;4.282;2023-07-20T03:58:17;14.20;99.90
18906;DHT22;9585;51.018;4.282;2023-07-20T04:00:45;14.20;99.90
18906;DHT22;9585;51.018;4.282;2023-07-20T04:03:13;14.20;99.90
18906;DHT22;9585;51.018;4.282;2023-07-20T04:05:41;14.30;99.90
18906;DHT22;9585;51.018;4.282;2023-07-20T04:08:10;14.30;99.90
18906;DHT22;9585;51.018;4.282;2023-07-20T04:10:38;14.30;99.90
18906;DHT22;9585;51.018;4.282;2023-07-20T04:13:06;14.30;99.90
18906;DHT22;9585;51.018;4.282;2023-07-20T04:15:34;14.30;99.90
18906;DHT22;9585;51.018;4.282;2023-07-20T04:18:01;14.30;99.90
18906;DHT22;9585;51.018;4.282;2023-07-20T04:20:30;14.30;99.90
18906;DHT22;9585;51.018;4.282;2023-07-20T04:22:58;14.30;99.90
18906;DHT22;9585;51.018;4.282;2023-07-20T04:25:27;14.30;99.90
18906;DHT22;9585;51.018;4.282;2023-07-20T04:27:56;14.40;99.90
18906;DHT22;9585;51.018;4.282;2023-07-20T04:30:24;14.40;99.90
18906;DHT22;9585;51.018;4.282;2023-07-20T04:32:52;14.40;99.90
18906;DHT22;9585;51.018;4.282;2023-07-20T04:35:47;14.40;99.90
18906;DHT22;9585;51.018;4.282;2023-07-20T04:38:15;14.50;99.90
18906;DHT22;9585;51.018;4.282;2023-07-20T04:40:46;14.50;99.90
18906;DHT22;9585;51.018;4.282;2023-07-20T04:43:14;14.50;99.90
18906;DHT22;9585;51.018;4.282;2023-07-20T04:45:43;14.50;99.90
18906;DHT22;9585;51.018;4.282;2023-07-20T04:48:11;14.50;99.90
18906;DHT22;9585;51.018;4.282;2023-07-20T04:50:41;14.50;99.90
18906;DHT22;9585;51.018;4.282;2023-07-20T04:53:09;14.50;99.90
18906;DHT22;9585;51.018;4.282;2023-07-20T04:55:37;14.60;99.90
18906;DHT22;9585;51.018;4.282;2023-07-20T04:58:07;14.70;99.90
18906;DHT22;9585;51.018;4.282;2023-07-20T05:00:34;14.90;99.90
18906;DHT22;9585;51.018;4.282;2023-07-20T05:03:02;15.00;99.90
18906;DHT22;9585;51.018;4.282;2023-07-20T05:05:32;15.10;99.90
18906;DHT22;9585;51.018;4.282;2023-07-20T05:07:59;15.10;99.90
18906;DHT22;9585;51.018;4.282;2023-07-20T05:10:27;15.10;99.90
18906;DHT22;9585;51.018;4.282;2023-07-20T05:12:55;15.20;99.90
18906;DHT22;9585;51.018;4.282;2023-07-20T05:15:24;15.20;99.90
18906;DHT22;9585;51.018;4.282;2023-07-20T05:17:52;15.20;99.90
18906;DHT22;9585;51.018;4.282;2023-07-20T05:20:19;15.30;99.90
18906;DHT22;9585;51.018;4.282;2023-07-20T05:22:47;15.30;99.90
18906;DHT22;9585;51.018;4.282;2023-07-20T05:25:15;15.40;99.90
18906;DHT22;9585;51.018;4.282;2023-07-20T05:27:45;15.40;99.90
18906;DHT22;9585;51.018;4.282;2023-07-20T05:30:13;15.40;99.90
18906;DHT22;9585;51.018;4.282;2023-07-20T05:32:42;15.40;99.90
18906;DHT22;9585;51.018;4.282;2023-07-20T05:35:11;15.50;99.90
18906;DHT22;9585;51.018;4.282;2023-07-20T05:37:39;15.50;99.90
18906;DHT22;9585;51.018;4.282;2023-07-20T05:40:07;15.60;99.90
18906;DHT22;9585;51.018;4.282;2023-07-20T05:42:36;15.70;99.90
18906;DHT22;9585;51.018;4.282;2023-07-20T05:45:05;15.80;99.90
18906;DHT22;9585;51.018;4.282;2023-07-20T05:47:33;15.90;99.90
18906;DHT22;9585;51.018;4.282;2023-07-20T05:50:03;16.00;99.90
18906;DHT22;9585;51.018;4.282;2023-07-20T05:52:31;16.10;99.90
18906;DHT22;9585;51.018;4.282;2023-07-20T05:54:59;16.80;99.90
18906;DHT22;9585;51.018;4.282;2023-07-20T05:57:26;17.20;99.90
18906;DHT22;9585;51.018;4.282;2023-07-20T05:59:54;17.40;99.90
18906;DHT22;9585;51.018;4.282;2023-07-20T06:02:22;17.40;99.90
18906;DHT22;9585;51.018;4.282;2023-07-20T06:04:50;17.40;99.90
18906;DHT22;9585;51.018;4.282;2023-07-20T06:07:18;17.40;99.90
18906;DHT22;9585;51.018;4.282;2023-07-20T06:09:46;17.30;99.90
18906;DHT22;9585;51.018;4.282;2023-07-20T06:12:14;17.20;99.90
18906;DHT22;9585;51.018;4.282;2023-07-20T06:14:41;17.20;99.90
18906;DHT22;9585;51.018;4.282;2023-07-20T06:17:09;17.30;99.90
18906;DHT22;9585;51.018;4.282;2023-07-20T06:19:37;17.30;99.90
18906;DHT22;9585;51.018;4.282;2023-07-20T06:22:05;17.40;99.90
18906;DHT22;9585;51.018;4.282;2023-07-20T06:24:34;17.50;99.90
18906;DHT22;9585;51.018;4.282;2023-07-20T06:27:02;17.50;99.90
18906;DHT22;9585;51.018;4.282;2023-07-20T06:29:31;17.70;99.90
18906;DHT22;9585;51.018;4.282;2023-07-20T06:31:59;18.00;99.90
18906;DHT22;9585;51.018;4.282;2023-07-20T06:34:27;18.30;99.90
18906;DHT22;9585;51.018;4.282;2023-07-20T06:36:55;18.50;99.90
18906;DHT22;9585;51.018;4.282;2023-07-20T06:39:23;18.60;99.90
18906;DHT22;9585;51.018;4.282;2023-07-20T06:41:52;18.70;99.90
18906;DHT22;9585;51.018;4.282;2023-07-20T06:44:19;18.80;99.90
18906;DHT22;9585;51.018;4.282;2023-07-20T06:46:47;18.70;99.90
18906;DHT22;9585;51.018;4.282;2023-07-20T06:49:25;18.80;99.90
18906;DHT22;9585;51.018;4.282;2023-07-20T06:51:53;18.90;99.90
18906;DHT22;9585;51.018;4.282;2023-07-20T06:54:20;18.90;99.90
18906;DHT22;9585;51.018;4.282;2023-07-20T06:56:48;19.20;99.90
18906;DHT22;9585;51.018;4.282;2023-07-20T06:59:17;19.50;99.90
18906;DHT22;9585;51.018;4.282;2023-07-20T07:01:45;19.70;99.90
18906;DHT22;9585;51.018;4.282;2023-07-20T07:04:13;19.50;99.90
18906;DHT22;9585;51.018;4.282;2023-07-20T07:06:41;19.40;99.90
18906;DHT22;9585;51.018;4.282;2023-07-20T07:09:09;19.30;99.90
18906;DHT22;9585;51.018;4.282;2023-07-20T07:11:36;19.00;99.90
18906;DHT22;9585;51.018;4.282;2023-07-20T07:14:05;19.00;99.90
18906;DHT22;9585;51.018;4.282;2023-07-20T07:16:34;19.00;99.90
18906;DHT22;9585;51.018;4.282;2023-07-20T07:19:01;19.20;99.90
18906;DHT22;9585;51.018;4.282;2023-07-20T07:21:29;19.20;99.90
18906;DHT22;9585;51.018;4.282;2023-07-20T07:23:57;19.40;99.90
18906;DHT22;9585;51.018;4.282;2023-07-20T07:26:25;19.60;99.90
18906;DHT22;9585;51.018;4.282;2023-07-20T07:28:54;19.80;99.90
18906;DHT22;9585;51.018;4.282;2023-07-20T07:31:21;20.00;99.90
18906;DHT22;9585;51.018;4.282;2023-07-20T07:33:50;20.00;99.90
18906;DHT22;9585;51.018;4.282;2023-07-20T07:36:18;20.00;99.90
18906;DHT22;9585;51.018;4.282;2023-07-20T07:38:46;20.20;99.90
18906;DHT22;9585;51.018;4.282;2023-07-20T07:41:14;20.30;99.90
18906;DHT22;9585;51.018;4.282;2023-07-20T07:43:42;20.60;99.90
18906;DHT22;9585;51.018;4.282;2023-07-20T07:46:10;20.90;99.90
18906;DHT22;9585;51.018;4.282;2023-07-20T07:48:37;20.90;99.90
18906;DHT22;9585;51.018;4.282;2023-07-20T07:51:07;21.20;99.90
18906;DHT22;9585;51.018;4.282;2023-07-20T07:53:35;21.30;99.90
18906;DHT22;9585;51.018;4.282;2023-07-20T07:56:04;22.10;99.90
18906;DHT22;9585;51.018;4.282;2023-07-20T07:58:34;23.40;99.90
18906;DHT22;9585;51.018;4.282;2023-07-20T08:01:02;24.30;99.90
18906;DHT22;9585;51.018;4.282;2023-07-20T08:03:30;25.10;99.90
18906;DHT22;9585;51.018;4.282;2023-07-20T08:05:58;26.40;99.90
18906;DHT22;9585;51.018;4.282;2023-07-20T08:08:28;27.60;99.90
18906;DHT22;9585;51.018;4.282;2023-07-20T08:10:56;28.60;99.90
18906;DHT22;9585;51.018;4.282;2023-07-20T08:13:23;29.00;99.90
18906;DHT22;9585;51.018;4.282;2023-07-20T08:15:52;29.70;99.90
18906;DHT22;9585;51.018;4.282;2023-07-20T08:18:20;30.10;99.90
18906;DHT22;9585;51.018;4.282;2023-07-20T08:20:47;29.50;99.90
18906;DHT22;9585;51.018;4.282;2023-07-20T08:23:15;29.60;99.90
18906;DHT22;9585;51.018;4.282;2023-07-20T08:25:44;28.90;99.90
18906;DHT22;9585;51.018;4.282;2023-07-20T08:28:15;29.40;99.90
18906;DHT22;9585;51.018;4.282;2023-07-20T08:30:44;30.30;99.90
18906;DHT22;9585;51.018;4.282;2023-07-20T08:33:13;30.10;99.90
18906;DHT22;9585;51.018;4.282;2023-07-20T08:35:41;29.30;99.90
18906;DHT22;9585;51.018;4.282;2023-07-20T08:38:09;28.30;99.90
18906;DHT22;9585;51.018;4.282;2023-07-20T08:40:40;27.40;99.90
18906;DHT22;9585;51.018;4.282;2023-07-20T08:43:10;26.80;99.90
18906;DHT22;9585;51.018;4.282;2023-07-20T08:45:39;26.20;99.90
18906;DHT22;9585;51.018;4.282;2023-07-20T08:48:08;25.80;99.90
18906;DHT22;9585;51.018;4.282;2023-07-20T08:50:37;25.40;99.90
18906;DHT22;9585;51.018;4.282;2023-07-20T08:53:06;25.60;99.90
18906;DHT22;9585;51.018;4.282;2023-07-20T08:55:34;25.90;99.90
18906;DHT22;9585;51.018;4.282;2023-07-20T08:58:03;25.40;99.90
18906;DHT22;9585;51.018;4.282;2023-07-20T09:00:35;26.30;99.90
18906;DHT22;9585;51.018;4.282;2023-07-20T09:03:05;26.80;99.90
18906;DHT22;9585;51.018;4.282;2023-07-20T09:05:33;27.30;99.90
18906;DHT22;9585;51.018;4.282;2023-07-20T09:08:01;27.40;99.90
18906;DHT22;9585;51.018;4.282;2023-07-20T09:10:30;27.50;99.90
18906;DHT22;9585;51.018;4.282;2023-07-20T09:12:58;26.90;99.90
18906;DHT22;9585;51.018;4.282;2023-07-20T09:15:26;25.90;99.90
18906;DHT22;9585;51.018;4.282;2023-07-20T09:17:55;26.10;99.90
18906;DHT22;9585;51.018;4.282;2023-07-20T09:20:23;26.00;99.90
18906;DHT22;9585;51.018;4.282;2023-07-20T09:22:51;26.20;99.90
18906;DHT22;9585;51.018;4.282;2023-07-20T09:25:19;26.10;99.90
18906;DHT22;9585;51.018;4.282;2023-07-20T09:27:48;26.10;99.90
18906;DHT22;9585;51.018;4.282;2023-07-20T09:30:17;25.70;99.90
18906;DHT22;9585;51.018;4.282;2023-07-20T09:32:45;25.00;99.90
18906;DHT22;9585;51.018;4.282;2023-07-20T09:35:15;25.10;99.90
18906;DHT22;9585;51.018;4.282;2023-07-20T09:37:51;24.90;99.90
18906;DHT22;9585;51.018;4.282;2023-07-20T09:40:20;24.80;99.90
18906;DHT22;9585;51.018;4.282;2023-07-20T09:42:48;24.30;99.90
18906;DHT22;9585;51.018;4.282;2023-07-20T09:45:19;24.40;99.90
18906;DHT22;9585;51.018;4.282;2023-07-20T09:47:46;24.40;99.90
18906;DHT22;9585;51.018;4.282;2023-07-20T09:50:16;24.10;99.90
18906;DHT22;9585;51.018;4.282;2023-07-20T09:52:44;24.00;99.90
18906;DHT22;9585;51.018;4.282;2023-07-20T09:55:13;23.40;99.90
18906;DHT22;9585;51.018;4.282;2023-07-20T09:57:41;23.40;99.90
18906;DHT22;9585;51.018;4.282;2023-07-20T10:00:09;23.30;99.90
18906;DHT22;9585;51.018;4.282;2023-07-20T10:02:42;23.50;99.90
18906;DHT22;9585;51.018;4.282;2023-07-20T10:05:12;23.60;99.90
18906;DHT22;9585;51.018;4.282;2023-07-20T10:07:48;23.80;99.90
18906;DHT22;9585;51.018;4.282;2023-07-20T10:10:17;23.70;99.90
18906;DHT22;9585;51.018;4.282;2023-07-20T10:12:47;23.60;99.90
18906;DHT22;9585;51.018;4.282;2023-07-20T10:15:20;23.50;99.90
18906;DHT22;9585;51.018;4.282;2023-07-20T10:18:06;23.40;99.90
18906;DHT22;9585;51.018;4.282;2023-07-20T10:20:40;23.30;99.90
18906;DHT22;9585;51.018;4.282;2023-07-20T10:23:09;22.90;99.90
18906;DHT22;9585;51.018;4.282;2023-07-20T10:25:38;23.10;99.90
18906;DHT22;9585;51.018;4.282;2023-07-20T10:28:07;22.60;99.90
18906;DHT22;9585;51.018;4.282;2023-07-20T10:30:35;22.70;99.90
18906;DHT22;9585;51.018;4.282;2023-07-20T10:33:03;22.90;99.90
18906;DHT22;9585;51.018;4.282;2023-07-20T10:35:36;23.00;99.90
18906;DHT22;9585;51.018;4.282;2023-07-20T10:38:19;23.10;99.90
18906;DHT22;9585;51.018;4.282;2023-07-20T10:40:57;23.00;99.90
18906;DHT22;9585;51.018;4.282;2023-07-20T10:43:26;23.10;99.90
18906;DHT22;9585;51.018;4.282;2023-07-20T10:45:54;23.20;99.90
18906;DHT22;9585;51.018;4.282;2023-07-20T10:48:23;23.20;99.90
18906;DHT22;9585;51.018;4.282;2023-07-20T10:51:13;23.50;99.90
18906;DHT22;9585;51.018;4.282;2023-07-20T10:53:43;23.50;99.90
18906;DHT22;9585;51.018;4.282;2023-07-20T10:56:12;23.20;99.90
18906;DHT22;9585;51.018;4.282;2023-07-20T10:58:41;23.30;99.90
18906;DHT22;9585;51.018;4.282;2023-07-20T11:01:09;23.60;99.90
18906;DHT22;9585;51.018;4.282;2023-07-20T11:03:40;23.40;99.90
18906;DHT22;9585;51.018;4.282;2023-07-20T11:06:30;23.50;99.90
18906;DHT22;9585;51.018;4.282;2023-07-20T11:09:10;23.70;99.90
18906;DHT22;9585;51.018;4.282;2023-07-20T11:11:41;23.20;99.90
18906;DHT22;9585;51.018;4.282;2023-07-20T11:14:09;23.10;99.90
18906;DHT22;9585;51.018;4.282;2023-07-20T11:16:41;23.20;99.90
18906;DHT22;9585;51.018;4.282;2023-07-20T11:19:17;23.00;99.90
18906;DHT22;9585;51.018;4.282;2023-07-20T11:21:46;23.40;99.90
18906;DHT22;9585;51.018;4.282;2023-07-20T11:24:15;23.30;99.90
18906;DHT22;9585;51.018;4.282;2023-07-20T11:26:44;23.50;99.90
18906;DHT22;9585;51.018;4.282;2023-07-20T11:29:12;23.60;99.90
18906;DHT22;9585;51.018;4.282;2023-07-20T11:31:41;23.60;99.90
18906;DHT22;9585;51.018;4.282;2023-07-20T11:34:11;23.60;99.90
18906;DHT22;9585;51.018;4.282;2023-07-20T11:36:40;23.60;99.90
18906;DHT22;9585;51.018;4.282;2023-07-20T11:39:09;23.60;99.90
18906;DHT22;9585;51.018;4.282;2023-07-20T11:41:44;23.60;99.90
18906;DHT22;9585;51.018;4.282;2023-07-20T11:44:12;23.70;99.90
18906;DHT22;9585;51.018;4.282;2023-07-20T11:46:41;23.70;99.90
18906;DHT22;9585;51.018;4.282;2023-07-20T11:49:10;23.50;99.90
18906;DHT22;9585;51.018;4.282;2023-07-20T11:51:39;23.40;99.90
18906;DHT22;9585;51.018;4.282;2023-07-20T11:54:08;23.70;99.90
18906;DHT22;9585;51.018;4.282;2023-07-20T11:56:41;24.10;99.90
18906;DHT22;9585;51.018;4.282;2023-07-20T11:59:10;24.20;99.90
18906;DHT22;9585;51.018;4.282;2023-07-20T12:01:38;24.20;99.90
18906;DHT22;9585;51.018;4.282;2023-07-20T12:04:06;24.10;99.90
18906;DHT22;9585;51.018;4.282;2023-07-20T12:06:34;24.20;99.90
18906;DHT22;9585;51.018;4.282;2023-07-20T12:09:01;24.20;99.90
18906;DHT22;9585;51.018;4.282;2023-07-20T12:11:33;23.90;99.90
18906;DHT22;9585;51.018;4.282;2023-07-20T12:14:03;23.80;99.90
18906;DHT22;9585;51.018;4.282;2023-07-20T12:16:32;23.40;99.90
18906;DHT22;9585;51.018;4.282;2023-07-20T12:19:00;23.40;99.90
18906;DHT22;9585;51.018;4.282;2023-07-20T12:21:29;23.40;99.90
18906;DHT22;9585;51.018;4.282;2023-07-20T12:23:57;23.40;99.90
18906;DHT22;9585;51.018;4.282;2023-07-20T12:26:28;23.20;99.90
18906;DHT22;9585;51.018;4.282;2023-07-20T12:28:56;23.00;99.90
18906;DHT22;9585;51.018;4.282;2023-07-20T12:31:25;22.80;99.90
18906;DHT22;9585;51.018;4.282;2023-07-20T12:33:54;22.60;99.90
18906;DHT22;9585;51.018;4.282;2023-07-20T12:36:23;22.40;99.90
18906;DHT22;9585;51.018;4.282;2023-07-20T12:38:51;22.10;99.90
18906;DHT22;9585;51.018;4.282;2023-07-20T12:41:19;22.00;99.90
18906;DHT22;9585;51.018;4.282;2023-07-20T12:43:47;21.90;99.90
18906;DHT22;9585;51.018;4.282;2023-07-20T12:46:15;21.70;99.90
18906;DHT22;9585;51.018;4.282;2023-07-20T12:48:45;21.60;99.90
18906;DHT22;9585;51.018;4.282;2023-07-20T12:51:13;21.50;99.90
18906;DHT22;9585;51.018;4.282;2023-07-20T12:53:41;21.30;99.90
18906;DHT22;9585;51.018;4.282;2023-07-20T12:56:09;21.10;99.90
18906;DHT22;9585;51.018;4.282;2023-07-20T12:58:37;21.10;99.90
18906;DHT22;9585;51.018;4.282;2023-07-20T13:01:05;21.10;99.90
18906;DHT22;9585;51.018;4.282;2023-07-20T13:03:33;21.20;99.90
18906;DHT22;9585;51.018;4.282;2023-07-20T13:06:02;21.10;99.90
18906;DHT22;9585;51.018;4.282;2023-07-20T13:08:29;21.10;99.90
18906;DHT22;9585;51.018;4.282;2023-07-20T13:10:57;21.10;99.90
18906;DHT22;9585;51.018;4.282;2023-07-20T13:13:26;21.00;99.90
18906;DHT22;9585;51.018;4.282;2023-07-20T13:15:55;21.10;99.90
18906;DHT22;9585;51.018;4.282;2023-07-20T13:18:23;21.10;99.90
18906;DHT22;9585;51.018;4.282;2023-07-20T13:20:50;21.10;99.90
18906;DHT22;9585;51.018;4.282;2023-07-20T13:23:20;21.10;99.90
18906;DHT22;9585;51.018;4.282;2023-07-20T13:25:48;21.10;99.90
18906;DHT22;9585;51.018;4.282;2023-07-20T13:28:17;21.10;99.90
18906;DHT22;9585;51.018;4.282;2023-07-20T13:30:45;21.10;99.90
18906;DHT22;9585;51.018;4.282;2023-07-20T13:33:13;21.20;99.90
18906;DHT22;9585;51.018;4.282;2023-07-20T13:35:41;21.30;99.90
18906;DHT22;9585;51.018;4.282;2023-07-20T13:38:09;21.40;99.90
18906;DHT22;9585;51.018;4.282;2023-07-20T13:40:38;21.20;99.90
18906;DHT22;9585;51.018;4.282;2023-07-20T13:43:05;21.00;99.90
18906;DHT22;9585;51.018;4.282;2023-07-20T13:45:33;21.00;99.90
18906;DHT22;9585;51.018;4.282;2023-07-20T13:48:01;20.90;99.90
18906;DHT22;9585;51.018;4.282;2023-07-20T13:50:28;20.90;99.90
18906;DHT22;9585;51.018;4.282;2023-07-20T13:52:56;20.80;99.90
18906;DHT22;9585;51.018;4.282;2023-07-20T13:55:23;20.80;99.90
18906;DHT22;9585;51.018;4.282;2023-07-20T13:57:52;20.80;99.90
18906;DHT22;9585;51.018;4.282;2023-07-20T14:00:20;20.80;99.90
18906;DHT22;9585;51.018;4.282;2023-07-20T14:02:48;20.90;99.90
18906;DHT22;9585;51.018;4.282;2023-07-20T14:05:16;21.00;99.90
18906;DHT22;9585;51.018;4.282;2023-07-20T14:07:45;21.10;99.90
18906;DHT22;9585;51.018;4.282;2023-07-20T14:10:13;21.20;99.90
18906;DHT22;9585;51.018;4.282;2023-07-20T14:12:40;21.40;99.90
18906;DHT22;9585;51.018;4.282;2023-07-20T14:15:11;21.70;99.90
18906;DHT22;9585;51.018;4.282;2023-07-20T14:17:38;21.90;99.90
18906;DHT22;9585;51.018;4.282;2023-07-20T14:20:07;22.50;99.90
18906;DHT22;9585;51.018;4.282;2023-07-20T14:22:34;22.60;99.90
18906;DHT22;9585;51.018;4.282;2023-07-20T14:25:03;22.80;99.90
18906;DHT22;9585;51.018;4.282;2023-07-20T14:27:31;22.90;99.90
18906;DHT22;9585;51.018;4.282;2023-07-20T14:29:59;22.90;99.90
18906;DHT22;9585;51.018;4.282;2023-07-20T14:32:28;22.80;99.90
18906;DHT22;9585;51.018;4.282;2023-07-20T14:34:57;22.70;99.90
18906;DHT22;9585;51.018;4.282;2023-07-20T14:37:25;22.80;99.90
18906;DHT22;9585;51.018;4.282;2023-07-20T14:39:52;22.80;99.90
18906;DHT22;9585;51.018;4.282;2023-07-20T14:42:20;22.90;99.90
18906;DHT22;9585;51.018;4.282;2023-07-20T14:44:48;23.00;99.90
18906;DHT22;9585;51.018;4.282;2023-07-20T14:47:15;23.00;99.90
18906;DHT22;9585;51.018;4.282;2023-07-20T14:49:45;23.10;99.90
18906;DHT22;9585;51.018;4.282;2023-07-20T14:52:13;23.10;99.90
18906;DHT22;9585;51.018;4.282;2023-07-20T14:54:41;23.10;99.90
18906;DHT22;9585;51.018;4.282;2023-07-20T14:57:09;22.90;99.90
18906;DHT22;9585;51.018;4.282;2023-07-20T14:59:40;22.70;99.90
18906;DHT22;9585;51.018;4.282;2023-07-20T15:02:08;22.40;99.90
18906;DHT22;9585;51.018;4.282;2023-07-20T15:04:36;22.20;99.90
18906;DHT22;9585;51.018;4.282;2023-07-20T15:07:06;22.00;99.90
18906;DHT22;9585;51.018;4.282;2023-07-20T15:09:33;21.80;99.90
18906;DHT22;9585;51.018;4.282;2023-07-20T15:12:01;21.60;99.90
18906;DHT22;9585;51.018;4.282;2023-07-20T15:14:29;21.40;99.90
18906;DHT22;9585;51.018;4.282;2023-07-20T15:16:57;21.20;99.90
18906;DHT22;9585;51.018;4.282;2023-07-20T15:19:25;21.00;99.90
18906;DHT22;9585;51.018;4.282;2023-07-20T15:21:52;20.80;99.90
18906;DHT22;9585;51.018;4.282;2023-07-20T15:24:22;20.50;99.90
18906;DHT22;9585;51.018;4.282;2023-07-20T15:26:52;20.20;99.90
18906;DHT22;9585;51.018;4.282;2023-07-20T15:29:20;19.80;99.90
18906;DHT22;9585;51.018;4.282;2023-07-20T15:31:49;19.20;99.90
18906;DHT22;9585;51.018;4.282;2023-07-20T15:34:17;18.70;99.90
18906;DHT22;9585;51.018;4.282;2023-07-20T15:36:45;18.10;99.90
18906;DHT22;9585;51.018;4.282;2023-07-20T15:39:13;17.80;99.90
18906;DHT22;9585;51.018;4.282;2023-07-20T15:41:42;17.50;99.90
18906;DHT22;9585;51.018;4.282;2023-07-20T15:44:12;17.20;99.90
18906;DHT22;9585;51.018;4.282;2023-07-20T15:46:47;17.10;99.90
18906;DHT22;9585;51.018;4.282;2023-07-20T15:49:15;17.00;99.90
18906;DHT22;9585;51.018;4.282;2023-07-20T15:51:42;16.90;99.90
18906;DHT22;9585;51.018;4.282;2023-07-20T15:54:13;16.80;99.90
18906;DHT22;9585;51.018;4.282;2023-07-20T15:56:43;16.80;99.90